createdAt,value
2023-05-16T00:01:23.244Z,96967.78
2023-05-16T00:03:51.585Z,96975.41
2023-05-16T00:06:19.822Z,96974.53
2023-05-16T00:08:47.974Z,96974.38
2023-05-16T00:11:17.550Z,96985.13
2023-05-16T00:13:47.872Z,96973.47
2023-05-16T00:16:16.228Z,96981.69
2023-05-16T00:18:45.708Z,96975.81
2023-05-16T00:21:15.263Z,96963.66
2023-05-16T00:23:43.682Z,96964.03
2023-05-16T00:26:11.840Z,96955.25
2023-05-16T00:28:42.512Z,96943.88
2023-05-16T00:31:12.439Z,96949.84
2023-05-16T00:33:40.616Z,96952.50
2023-05-16T00:36:09.202Z,96943.44
2023-05-16T00:38:37.602Z,96934.84
2023-05-16T00:41:05.908Z,96931.34
2023-05-16T00:43:34.211Z,96919.28
2023-05-16T00:46:02.566Z,96909.94
2023-05-16T00:48:32.478Z,96905.75
2023-05-16T00:51:01.985Z,96901.09
2023-05-16T00:53:30.684Z,96897.13
2023-05-16T00:56:00.069Z,96892.34
2023-05-16T00:58:29.194Z,96901.00
2023-05-16T01:00:57.421Z,96893.09
2023-05-16T01:03:27.347Z,96898.59
2023-05-16T01:05:57.085Z,96904.88
2023-05-16T01:08:25.407Z,96900.97
2023-05-16T01:11:21.610Z,96904.47
2023-05-16T01:13:57.476Z,96903.94
2023-05-16T01:16:31.629Z,96907.00
2023-05-16T01:19:06.115Z,96896.97
2023-05-16T01:21:44.418Z,96888.94
2023-05-16T01:24:16.206Z,96903.91
2023-05-16T01:26:46.052Z,96916.38
2023-05-16T01:29:14.484Z,96916.00
2023-05-16T01:31:43.672Z,96915.63
2023-05-16T01:34:12.660Z,96916.31
2023-05-16T01:36:45.880Z,96895.00
2023-05-16T01:39:22.380Z,96883.00
2023-05-16T01:41:56.289Z,96882.41
2023-05-16T01:44:28.820Z,96874.41
2023-05-16T01:47:00.350Z,96859.56
2023-05-16T01:49:33.787Z,96858.19
2023-05-16T01:52:04.822Z,96842.47
2023-05-16T01:54:33.674Z,96849.03
2023-05-16T01:57:08.246Z,96852.63
2023-05-16T01:59:37.767Z,96838.81
2023-05-16T02:02:06.272Z,96823.81
2023-05-16T02:04:35.051Z,96821.34
2023-05-16T02:07:03.236Z,96822.72
2023-05-16T02:09:31.537Z,96810.75
2023-05-16T02:12:02.596Z,96801.53
2023-05-16T02:14:32.364Z,96812.59
2023-05-16T02:17:01.019Z,96821.34
2023-05-16T02:19:29.366Z,96826.84
2023-05-16T02:21:58.878Z,96825.09
2023-05-16T02:24:27.704Z,96817.63
2023-05-16T02:26:57.908Z,96813.75
2023-05-16T02:29:26.109Z,96804.03
2023-05-16T02:31:55.938Z,96793.09
2023-05-16T02:34:24.331Z,96789.63
2023-05-16T02:36:52.970Z,96799.28
2023-05-16T02:39:23.620Z,96815.69
2023-05-16T02:41:53.117Z,96807.75
2023-05-16T02:44:21.477Z,96801.59
2023-05-16T02:46:49.773Z,96796.59
2023-05-16T02:49:19.325Z,96788.53
2023-05-16T02:51:48.008Z,96783.06
2023-05-16T02:54:16.704Z,96779.34
2023-05-16T02:56:45.747Z,96788.75
2023-05-16T02:59:14.846Z,96800.31
2023-05-16T03:01:43.277Z,96793.91
2023-05-16T03:04:11.555Z,96787.00
2023-05-16T03:06:41.355Z,96797.88
2023-05-16T03:09:10.085Z,96802.91
2023-05-16T03:11:41.373Z,96797.28
2023-05-16T03:14:10.635Z,96797.91
2023-05-16T03:16:39.139Z,96804.78
2023-05-16T03:19:07.848Z,96814.56
2023-05-16T03:21:36.718Z,96833.03
2023-05-16T03:24:06.832Z,96842.03
2023-05-16T03:26:35.053Z,96835.13
2023-05-16T03:29:03.357Z,96829.53
2023-05-16T03:31:33.032Z,96838.91
2023-05-16T03:34:01.375Z,96849.81
2023-05-16T03:36:29.708Z,96848.63
2023-05-16T03:38:57.930Z,96840.75
2023-05-16T03:41:27.707Z,96829.19
2023-05-16T03:43:55.900Z,96823.03
2023-05-16T03:46:24.122Z,96816.16
2023-05-16T03:48:52.490Z,96821.03
2023-05-16T03:51:21.599Z,96808.66
2023-05-16T03:53:49.814Z,96801.88
2023-05-16T03:56:17.995Z,96808.56
2023-05-16T03:58:47.531Z,96817.38
2023-05-16T04:01:15.911Z,96810.50
2023-05-16T04:03:44.140Z,96817.47
2023-05-16T04:06:12.473Z,96818.78
2023-05-16T04:08:41.198Z,96821.19
2023-05-16T04:11:09.369Z,96825.31
2023-05-16T04:13:37.713Z,96819.31
2023-05-16T04:16:08.424Z,96828.84
2023-05-16T04:18:36.650Z,96837.13
2023-05-16T04:21:05.468Z,96830.97
2023-05-16T04:23:33.779Z,96830.41
2023-05-16T04:26:02.017Z,96831.06
2023-05-16T04:28:30.355Z,96836.59
2023-05-16T04:30:58.514Z,96849.72
2023-05-16T04:33:28.060Z,96834.38
2023-05-16T04:35:58.162Z,96831.69
2023-05-16T04:38:26.588Z,96833.19
2023-05-16T04:40:54.920Z,96832.66
2023-05-16T04:43:23.176Z,96845.03
2023-05-16T04:45:54.158Z,96850.38
2023-05-16T04:48:22.878Z,96846.66
2023-05-16T04:50:52.563Z,96847.81
2023-05-16T04:53:20.753Z,96847.03
2023-05-16T04:55:48.881Z,96853.34
2023-05-16T04:58:17.067Z,96849.72
2023-05-16T05:00:45.264Z,96848.69
2023-05-16T05:03:13.776Z,96848.97
2023-05-16T05:05:45.893Z,96844.41
2023-05-16T05:08:19.845Z,96843.56
2023-05-16T05:10:53.048Z,96848.66
2023-05-16T05:13:21.722Z,96844.94
2023-05-16T05:15:57.413Z,96846.03
2023-05-16T05:18:33.811Z,96841.75
2023-05-16T05:21:04.088Z,96845.88
2023-05-16T05:23:34.920Z,96838.28
2023-05-16T05:26:03.355Z,96837.47
2023-05-16T05:28:31.679Z,96834.75
2023-05-16T05:31:00.056Z,96826.25
2023-05-16T05:33:30.248Z,96825.44
2023-05-16T05:35:58.539Z,96822.22
2023-05-16T05:38:26.959Z,96820.63
2023-05-16T05:40:56.714Z,96821.06
2023-05-16T05:43:24.877Z,96824.16
2023-05-16T05:45:53.982Z,96830.53
2023-05-16T05:48:22.690Z,96835.38
2023-05-16T05:50:51.032Z,96834.78
2023-05-16T05:53:19.318Z,96834.19
2023-05-16T05:55:47.701Z,96827.19
2023-05-16T05:58:18.275Z,96837.47
2023-05-16T06:00:46.483Z,96831.06
2023-05-16T06:03:14.735Z,96822.69
2023-05-16T06:05:43.160Z,96826.09
2023-05-16T06:08:11.379Z,96835.44
2023-05-16T06:10:39.655Z,96835.66
2023-05-16T06:13:07.977Z,96849.88
2023-05-16T06:15:37.612Z,96848.63
2023-05-16T06:18:06.143Z,96849.88
2023-05-16T06:20:34.433Z,96857.59
2023-05-16T06:23:02.671Z,96870.13
2023-05-16T06:25:31.068Z,96880.22
2023-05-16T06:27:59.362Z,96898.38
2023-05-16T06:30:27.656Z,96902.91
2023-05-16T06:32:57.274Z,96918.25
2023-05-16T06:35:25.582Z,96934.44
2023-05-16T06:37:53.876Z,96951.50
2023-05-16T06:40:22.095Z,96960.63
2023-05-16T06:42:50.369Z,96965.94
2023-05-16T06:45:19.163Z,96972.53
2023-05-16T06:47:47.374Z,96971.41
2023-05-16T06:50:17.153Z,96971.41
2023-05-16T06:52:45.401Z,96970.00
2023-05-16T06:55:13.666Z,96968.69
2023-05-16T06:57:41.940Z,96973.72
2023-05-16T07:00:11.039Z,96960.50
2023-05-16T07:02:39.337Z,96953.41
2023-05-16T07:05:08.608Z,96943.34
2023-05-16T07:07:38.221Z,96941.25
2023-05-16T07:10:07.120Z,96941.00
2023-05-16T07:12:37.561Z,96950.41
2023-05-16T07:15:07.144Z,96939.97
2023-05-16T07:17:35.562Z,96936.44
2023-05-16T07:20:05.437Z,96910.47
2023-05-16T07:22:34.103Z,96911.13
2023-05-16T07:25:04.588Z,96904.72
2023-05-16T07:27:33.168Z,96905.41
2023-05-16T07:30:01.377Z,96907.78
2023-05-16T07:32:29.688Z,96903.06
2023-05-16T07:34:57.928Z,96899.41
2023-05-16T07:37:26.238Z,96894.22
2023-05-16T07:39:56.766Z,96896.56
2023-05-16T07:42:26.677Z,96894.75
2023-05-16T07:44:55.186Z,96908.56
2023-05-16T07:47:23.505Z,96910.09
2023-05-16T07:49:51.781Z,96912.03
2023-05-16T07:52:20.057Z,96898.38
2023-05-16T07:54:48.703Z,96888.25
2023-05-16T07:57:17.001Z,96881.19
2023-05-16T07:59:47.175Z,96881.63
2023-05-16T08:02:15.631Z,96876.59
2023-05-16T08:04:43.820Z,96872.97
2023-05-16T08:07:12.145Z,96873.41
2023-05-16T08:09:40.422Z,96868.50
2023-05-16T08:12:10.117Z,96857.09
2023-05-16T08:14:38.966Z,96856.22
2023-05-16T08:17:08.799Z,96857.91
2023-05-16T08:19:37.149Z,96860.69
2023-05-16T08:22:08.910Z,96849.53
2023-05-16T08:24:37.769Z,96857.47
2023-05-16T08:27:06.797Z,96863.34
2023-05-16T08:29:35.116Z,96865.84
2023-05-16T08:32:03.748Z,96874.97
2023-05-16T08:34:34.052Z,96871.91
2023-05-16T08:37:02.363Z,96884.34
2023-05-16T08:39:31.404Z,96885.16
2023-05-16T08:42:02.505Z,96892.94
2023-05-16T08:44:30.941Z,96894.16
2023-05-16T08:47:00.305Z,96917.75
2023-05-16T08:49:29.390Z,96916.63
2023-05-16T08:52:00.707Z,96901.88
2023-05-16T08:54:29.217Z,96876.28
2023-05-16T08:56:58.126Z,96864.28
2023-05-16T08:59:26.838Z,96859.53
2023-05-16T09:01:56.289Z,96865.69
2023-05-16T09:04:27.818Z,96868.28
2023-05-16T09:06:56.294Z,96865.44
2023-05-16T09:09:26.182Z,96867.31
2023-05-16T09:11:54.422Z,96870.56
2023-05-16T09:14:22.723Z,96859.22
2023-05-16T09:17:05.192Z,96860.69
2023-05-16T09:19:41.219Z,96870.06
2023-05-16T09:22:11.131Z,96881.09
2023-05-16T09:24:45.485Z,96877.09
2023-05-16T09:27:15.271Z,96875.22
2023-05-16T09:29:44.251Z,96873.19
2023-05-16T09:32:15.799Z,96881.06
2023-05-16T09:34:45.614Z,96878.63
2023-05-16T09:37:13.834Z,96885.53
2023-05-16T09:39:47.641Z,96888.44
2023-05-16T09:42:16.460Z,96897.53
2023-05-16T09:44:48.116Z,96882.78
2023-05-16T09:47:16.721Z,96884.75
2023-05-16T09:49:46.310Z,96889.13
2023-05-16T09:52:15.310Z,96893.47
2023-05-16T09:54:45.075Z,96892.38
2023-05-16T09:57:13.262Z,96898.44
2023-05-16T09:59:41.778Z,96904.00
2023-05-16T10:02:10.302Z,96897.97
2023-05-16T10:04:38.571Z,96896.09
2023-05-16T10:07:09.879Z,96878.09
2023-05-16T10:09:38.668Z,96875.25
2023-05-16T10:12:10.475Z,96867.38
2023-05-16T10:14:40.422Z,96862.31
2023-05-16T10:17:10.387Z,96865.03
2023-05-16T10:19:40.337Z,96857.72
2023-05-16T10:22:08.836Z,96859.97
2023-05-16T10:24:41.034Z,96859.13
2023-05-16T10:27:11.018Z,96853.94
2023-05-16T10:29:46.799Z,96868.97
2023-05-16T10:32:23.487Z,96866.63
2023-05-16T10:34:52.620Z,96848.22
2023-05-16T10:37:20.963Z,96836.03
2023-05-16T10:39:49.734Z,96831.19
2023-05-16T10:42:20.708Z,96840.22
2023-05-16T10:44:58.486Z,96840.66
2023-05-16T10:47:33.071Z,96810.16
2023-05-16T10:50:01.358Z,96815.41
2023-05-16T10:52:34.973Z,96815.00
2023-05-16T10:55:04.881Z,96812.03
2023-05-16T10:57:34.673Z,96797.22
2023-05-16T11:00:04.286Z,96785.09
2023-05-16T11:02:34.847Z,96782.03
2023-05-16T11:05:03.982Z,96789.03
2023-05-16T11:07:34.726Z,96782.19
2023-05-16T11:10:10.224Z,96768.69
2023-05-16T11:12:55.132Z,96753.91
2023-05-16T11:15:26.551Z,96744.97
2023-05-16T11:18:06.562Z,96757.06
2023-05-16T11:20:36.130Z,96762.13
2023-05-16T11:23:26.401Z,96768.28
2023-05-16T11:25:57.184Z,96768.28
2023-05-16T11:28:27.868Z,96766.47
2023-05-16T11:31:00.177Z,96763.91
2023-05-16T11:33:29.964Z,96772.72
2023-05-16T11:36:14.498Z,96771.03
2023-05-16T11:38:45.077Z,96770.09
2023-05-16T11:41:15.573Z,96777.97
2023-05-16T11:43:46.781Z,96772.81
2023-05-16T11:46:16.344Z,96756.91
2023-05-16T11:48:47.518Z,96746.66
2023-05-16T11:51:21.878Z,96751.69
2023-05-16T11:53:51.031Z,96739.19
2023-05-16T11:56:19.690Z,96733.69
2023-05-16T11:58:50.863Z,96728.72
2023-05-16T12:01:19.322Z,96727.56
2023-05-16T12:03:56.778Z,96723.94
2023-05-16T12:06:25.140Z,96733.50
2023-05-16T12:08:53.936Z,96726.69
2023-05-16T12:11:24.619Z,96726.56
2023-05-16T12:13:55.378Z,96718.03
2023-05-16T12:16:24.281Z,96714.88
2023-05-16T12:18:53.314Z,96712.94
2023-05-16T12:21:22.460Z,96710.78
2023-05-16T12:23:51.762Z,96708.50
2023-05-16T12:26:27.186Z,96707.78
2023-05-16T12:29:00.727Z,96708.09
2023-05-16T12:31:32.218Z,96702.03
2023-05-16T12:34:01.235Z,96696.97
2023-05-16T12:36:33.560Z,96698.78
2023-05-16T12:39:03.699Z,96692.94
2023-05-16T12:41:32.873Z,96694.25
2023-05-16T12:44:17.420Z,96680.84
2023-05-16T12:46:46.969Z,96676.84
2023-05-16T12:49:15.482Z,96682.72
2023-05-16T12:51:50.564Z,96682.84
2023-05-16T12:54:19.058Z,96680.47
2023-05-16T12:56:47.592Z,96683.34
2023-05-16T12:59:17.829Z,96681.47
2023-05-16T13:01:46.479Z,96674.81
2023-05-16T13:04:19.152Z,96670.47
2023-05-16T13:09:19.421Z,96657.69
2023-05-16T13:11:48.344Z,96647.59
2023-05-16T13:14:18.482Z,96646.41
2023-05-16T13:16:46.774Z,96653.06
2023-05-16T13:19:15.159Z,96653.31
2023-05-16T13:21:43.573Z,96646.75
2023-05-16T13:24:11.785Z,96646.22
2023-05-16T13:26:40.047Z,96646.50
2023-05-16T13:29:11.479Z,96633.56
2023-05-16T13:31:41.191Z,96635.50
2023-05-16T13:34:09.575Z,96627.38
2023-05-16T13:36:52.369Z,96628.72
2023-05-16T13:39:22.200Z,96625.75
2023-05-16T13:41:50.742Z,96628.72
2023-05-16T13:44:19.566Z,96623.97
2023-05-16T13:46:50.528Z,96619.81
2023-05-16T13:49:18.816Z,96618.50
2023-05-16T13:51:47.292Z,96616.59
2023-05-16T13:54:15.601Z,96617.09
2023-05-16T13:56:44.254Z,96610.31
2023-05-16T13:59:16.802Z,96599.34
2023-05-16T14:01:51.004Z,96590.31
2023-05-16T14:04:19.305Z,96584.94
2023-05-16T14:06:47.741Z,96583.81
2023-05-16T14:09:16.970Z,96589.97
2023-05-16T14:11:45.363Z,96574.38
2023-05-16T14:14:13.565Z,96574.78
2023-05-16T14:16:45.610Z,96561.16
2023-05-16T14:19:18.127Z,96573.91
2023-05-16T14:21:47.965Z,96577.31
2023-05-16T14:24:16.189Z,96574.44
2023-05-16T14:26:44.994Z,96580.94
2023-05-16T14:29:13.801Z,96575.78
2023-05-16T14:31:42.713Z,96567.38
2023-05-16T14:34:11.901Z,96577.19
2023-05-16T14:36:42.190Z,96582.75
2023-05-16T14:39:10.962Z,96588.91
2023-05-16T14:41:39.845Z,96588.16
2023-05-16T14:44:08.651Z,96598.75
2023-05-16T14:46:37.682Z,96604.34
2023-05-16T14:49:06.687Z,96610.16
2023-05-16T14:51:36.992Z,96619.00
2023-05-16T14:54:07.374Z,96623.13
2023-05-16T14:56:36.224Z,96638.41
2023-05-16T14:59:04.621Z,96644.19
2023-05-16T15:01:35.816Z,96651.53
2023-05-16T15:04:04.936Z,96647.25
2023-05-16T15:06:34.003Z,96651.13
2023-05-16T15:09:03.873Z,96651.13
2023-05-16T15:11:36.816Z,96660.53
2023-05-16T15:14:11.724Z,96661.84
2023-05-16T15:16:40.931Z,96651.25
2023-05-16T15:19:12.137Z,96641.19
2023-05-16T15:21:42.708Z,96642.00
2023-05-16T15:24:13.740Z,96631.47
2023-05-16T15:26:47.277Z,96640.94
2023-05-16T15:29:22.407Z,96639.69
2023-05-16T15:31:52.822Z,96654.47
2023-05-16T15:34:24.371Z,96662.00
2023-05-16T15:36:54.157Z,96663.66
2023-05-16T15:39:26.617Z,96666.28
2023-05-16T15:42:33.178Z,96657.53
2023-05-16T15:45:03.550Z,96663.53
2023-05-16T15:48:01.087Z,96661.47
2023-05-16T15:50:30.384Z,96663.94
2023-05-16T15:53:00.033Z,96658.75
2023-05-16T15:55:30.473Z,96659.66
2023-05-16T15:58:01.200Z,96662.19
2023-05-16T16:00:35.889Z,96663.66
2023-05-16T16:03:08.243Z,96665.56
2023-05-16T16:05:40.045Z,96667.94
2023-05-16T16:08:11.919Z,96676.59
2023-05-16T16:10:42.649Z,96668.63
2023-05-16T16:13:13.570Z,96679.59
2023-05-16T16:15:43.051Z,96676.06
2023-05-16T16:18:14.614Z,96681.72
2023-05-16T16:20:48.860Z,96678.09
2023-05-16T16:23:18.547Z,96671.53
2023-05-16T16:25:49.771Z,96660.38
2023-05-16T16:28:22.502Z,96655.75
2023-05-16T16:30:52.352Z,96662.06
2023-05-16T16:33:21.694Z,96660.84
2023-05-16T16:35:53.938Z,96653.91
2023-05-16T16:38:24.689Z,96643.31
2023-05-16T16:40:54.317Z,96656.69
2023-05-16T16:43:25.465Z,96665.25
2023-05-16T16:45:54.772Z,96654.81
2023-05-16T16:48:25.083Z,96651.78
2023-05-16T16:50:55.052Z,96654.75
2023-05-16T16:53:25.791Z,96656.28
2023-05-16T16:55:55.299Z,96673.66
2023-05-16T16:58:26.239Z,96676.50
2023-05-16T17:00:56.378Z,96666.13
2023-05-16T17:03:25.890Z,96667.06
2023-05-16T17:05:58.404Z,96663.63
2023-05-16T17:08:28.955Z,96662.06
2023-05-16T17:11:00.502Z,96660.88
2023-05-16T17:13:34.380Z,96664.91
2023-05-16T17:16:04.857Z,96669.75
2023-05-16T17:18:37.409Z,96671.81
2023-05-16T17:21:07.322Z,96672.63
2023-05-16T17:23:47.882Z,96674.53
2023-05-16T17:26:17.428Z,96683.69
2023-05-16T17:28:48.241Z,96679.13
2023-05-16T17:31:17.827Z,96687.03
2023-05-16T17:33:48.605Z,96685.25
2023-05-16T17:36:17.962Z,96688.53
2023-05-16T17:38:48.420Z,96698.19
2023-05-16T17:41:18.833Z,96690.44
2023-05-16T17:43:53.196Z,96701.75
2023-05-16T17:46:23.841Z,96699.16
2023-05-16T17:48:53.215Z,96705.75
2023-05-16T17:51:27.805Z,96724.53
2023-05-16T17:53:58.208Z,96733.00
2023-05-16T17:56:30.837Z,96734.72
2023-05-16T17:59:01.928Z,96739.41
2023-05-16T18:01:31.500Z,96734.34
2023-05-16T18:04:05.248Z,96736.28
2023-05-16T18:06:34.743Z,96726.44
2023-05-16T18:09:06.599Z,96715.25
2023-05-16T18:11:36.266Z,96719.44
2023-05-16T18:14:09.528Z,96701.78
2023-05-16T18:16:38.766Z,96709.25
2023-05-16T18:19:09.374Z,96704.22
2023-05-16T18:21:38.992Z,96701.19
2023-05-16T18:24:12.276Z,96705.00
2023-05-16T18:26:44.378Z,96712.09
2023-05-16T18:29:16.631Z,96724.06
2023-05-16T18:31:53.314Z,96703.75
2023-05-16T18:34:22.804Z,96696.44
2023-05-16T18:36:53.223Z,96710.00
2023-05-16T18:39:23.298Z,96724.47
2023-05-16T18:41:52.694Z,96720.66
2023-05-16T18:44:24.862Z,96727.44
2023-05-16T18:46:56.013Z,96725.75
2023-05-16T18:49:28.348Z,96735.22
2023-05-16T18:51:58.537Z,96733.72
2023-05-16T18:54:27.888Z,96734.53
2023-05-16T18:56:57.543Z,96735.84
2023-05-16T18:59:29.406Z,96741.47
2023-05-16T19:01:59.489Z,96737.28
2023-05-16T19:04:28.964Z,96742.63
2023-05-16T19:06:58.783Z,96749.00
2023-05-16T19:09:28.404Z,96739.25
2023-05-16T19:11:58.093Z,96745.69
2023-05-16T19:14:29.051Z,96751.91
2023-05-16T19:16:58.807Z,96736.53
2023-05-16T19:19:28.523Z,96730.75
2023-05-16T19:21:58.601Z,96729.31
2023-05-16T19:24:28.647Z,96727.06
2023-05-16T19:26:58.387Z,96722.56
2023-05-16T19:29:30.384Z,96718.31
2023-05-16T19:32:00.800Z,96716.03
2023-05-16T19:34:32.933Z,96720.22
2023-05-16T19:37:03.343Z,96712.50
2023-05-16T19:39:33.555Z,96715.09
2023-05-16T19:42:07.172Z,96715.34
2023-05-16T19:44:46.814Z,96703.47
2023-05-16T19:47:16.121Z,96706.00
2023-05-16T19:49:45.524Z,96711.94
2023-05-16T19:52:15.231Z,96717.38
2023-05-16T19:54:44.401Z,96730.16
2023-05-16T19:57:13.600Z,96727.34
2023-05-16T19:59:44.236Z,96729.47
2023-05-16T20:02:13.418Z,96723.81
2023-05-16T20:04:42.494Z,96720.28
2023-05-16T20:07:11.657Z,96723.28
2023-05-16T20:09:41.010Z,96731.31
2023-05-16T20:12:10.898Z,96725.28
2023-05-16T20:14:40.177Z,96720.91
2023-05-16T20:17:10.854Z,96722.34
2023-05-16T20:19:44.505Z,96732.97
2023-05-16T20:22:15.506Z,96736.19
2023-05-16T20:24:44.724Z,96731.00
2023-05-16T20:27:14.891Z,96732.16
2023-05-16T20:29:45.053Z,96732.31
2023-05-16T20:32:16.527Z,96728.72
2023-05-16T20:34:46.237Z,96734.13
2023-05-16T20:37:16.961Z,96733.50
2023-05-16T20:39:46.259Z,96720.59
2023-05-16T20:42:15.525Z,96726.97
2023-05-16T20:44:44.898Z,96719.31
2023-05-16T20:47:15.480Z,96720.69
2023-05-16T20:49:44.740Z,96719.69
2023-05-16T20:52:14.098Z,96719.31
2023-05-16T20:54:43.177Z,96722.44
2023-05-16T20:57:11.669Z,96724.09
2023-05-16T20:59:40.167Z,96716.75
2023-05-16T21:02:10.181Z,96727.16
2023-05-16T21:04:40.146Z,96729.84
2023-05-16T21:07:08.840Z,96721.16
2023-05-16T21:09:38.052Z,96740.81
2023-05-16T21:12:06.968Z,96740.19
2023-05-16T21:14:35.270Z,96734.28
2023-05-16T21:17:03.574Z,96730.78
2023-05-16T21:19:34.948Z,96729.84
2023-05-16T21:22:05.037Z,96736.88
2023-05-16T21:24:35.400Z,96732.72
2023-05-16T21:27:03.859Z,96738.22
2023-05-16T21:29:32.360Z,96725.34
2023-05-16T21:32:00.689Z,96733.88
2023-05-16T21:34:29.053Z,96728.69
2023-05-16T21:36:58.753Z,96738.47
2023-05-16T21:39:28.574Z,96744.44
2023-05-16T21:41:56.769Z,96752.81
2023-05-16T21:44:25.165Z,96753.31
2023-05-16T21:46:54.312Z,96743.94
2023-05-16T21:49:22.557Z,96756.41
2023-05-16T21:51:51.236Z,96743.69
2023-05-16T21:54:21.261Z,96750.03
2023-05-16T21:56:50.950Z,96760.91
2023-05-16T21:59:19.263Z,96762.34
2023-05-16T22:01:47.460Z,96761.31
2023-05-16T22:04:15.800Z,96758.84
2023-05-16T22:06:44.131Z,96766.22
2023-05-16T22:09:12.902Z,96762.78
2023-05-16T22:11:41.310Z,96762.09
2023-05-16T22:14:11.046Z,96761.41
2023-05-16T22:16:39.297Z,96761.97
2023-05-16T22:19:09.012Z,96758.16
2023-05-16T22:21:37.488Z,96765.44
2023-05-16T22:24:06.388Z,96762.56
2023-05-16T22:26:35.247Z,96772.56
2023-05-16T22:29:03.544Z,96782.13
2023-05-16T22:31:33.285Z,96771.34
2023-05-16T22:34:01.837Z,96773.41
2023-05-16T22:36:30.390Z,96775.34
2023-05-16T22:38:58.627Z,96759.00
2023-05-16T22:41:29.122Z,96766.50
2023-05-16T22:43:57.344Z,96757.84
2023-05-16T22:46:25.846Z,96762.44
2023-05-16T22:48:55.576Z,96772.03
2023-05-16T22:51:23.873Z,96762.38
2023-05-16T22:53:52.174Z,96766.16
2023-05-16T22:56:20.502Z,96762.69
2023-05-16T22:58:49.083Z,96766.72
2023-05-16T23:01:18.035Z,96757.25
2023-05-16T23:03:47.064Z,96750.03
2023-05-16T23:06:16.956Z,96755.16
2023-05-16T23:08:45.208Z,96754.25
2023-05-16T23:11:13.426Z,96753.31
2023-05-16T23:13:42.318Z,96745.84
2023-05-16T23:16:10.553Z,96752.28
2023-05-16T23:18:39.099Z,96745.81
2023-05-16T23:21:07.968Z,96747.59
2023-05-16T23:26:44.657Z,96753.38
2023-05-16T23:29:12.984Z,96750.81
2023-05-16T23:31:41.204Z,96756.09
2023-05-16T23:34:09.582Z,96734.88
2023-05-16T23:36:38.015Z,96740.22
2023-05-16T23:39:08.256Z,96737.56
2023-05-16T23:41:37.049Z,96743.00
2023-05-16T23:44:06.986Z,96758.44
2023-05-16T23:46:35.345Z,96749.13
2023-05-16T23:49:03.726Z,96753.13
2023-05-16T23:51:44.925Z,96759.59
2023-05-16T23:54:21.002Z,96757.09
2023-05-16T23:56:49.345Z,96752.56
2023-05-16T23:59:19.838Z,96748.03
